createdAt,value
2023-05-20T00:00:39.192Z,0.00
2023-05-20T00:01:39.186Z,0.00
2023-05-20T00:02:39.226Z,0.00
2023-05-20T00:03:39.367Z,0.00
2023-05-20T00:04:39.285Z,0.00
2023-05-20T00:05:39.138Z,0.00
2023-05-20T00:06:39.137Z,0.00
2023-05-20T00:07:39.141Z,0.00
2023-05-20T00:08:39.110Z,0.00
2023-05-20T00:09:39.161Z,0.00
2023-05-20T00:10:39.114Z,0.00
2023-05-20T00:11:39.085Z,0.00
2023-05-20T00:12:39.090Z,0.00
2023-05-20T00:13:39.092Z,0.00
2023-05-20T00:14:39.056Z,0.00
2023-05-20T00:15:39.060Z,0.00
2023-05-20T00:16:39.075Z,0.00
2023-05-20T00:17:39.037Z,0.00
2023-05-20T00:18:39.016Z,0.00
2023-05-20T00:19:38.990Z,0.00
2023-05-20T00:20:38.982Z,0.00
2023-05-20T00:21:39.073Z,0.00
2023-05-20T00:22:38.996Z,0.00
2023-05-20T00:23:38.953Z,0.00
2023-05-20T00:24:38.942Z,0.00
2023-05-20T00:25:38.942Z,0.00
2023-05-20T00:26:38.921Z,0.00
2023-05-20T00:27:38.943Z,0.00
2023-05-20T00:28:38.948Z,0.00
2023-05-20T00:29:38.906Z,0.00
2023-05-20T00:30:38.880Z,0.00
2023-05-20T00:31:38.998Z,0.00
2023-05-20T00:32:38.910Z,0.00
2023-05-20T00:33:38.869Z,0.00
2023-05-20T00:34:38.836Z,0.00
2023-05-20T00:35:38.835Z,0.00
2023-05-20T00:36:38.829Z,0.00
2023-05-20T00:37:38.812Z,0.00
2023-05-20T00:38:38.838Z,0.00
2023-05-20T00:39:38.812Z,0.00
2023-05-20T00:40:38.825Z,0.00
2023-05-20T00:41:38.762Z,0.00
2023-05-20T00:42:38.758Z,0.00
2023-05-20T00:43:38.770Z,0.00
2023-05-20T00:44:38.753Z,0.00
2023-05-20T00:45:38.814Z,0.00
2023-05-20T00:46:38.789Z,0.00
2023-05-20T00:47:38.722Z,0.00
2023-05-20T00:48:38.694Z,0.00
2023-05-20T00:49:38.712Z,0.00
2023-05-20T00:50:38.702Z,0.00
2023-05-20T00:51:38.715Z,0.00
2023-05-20T00:52:38.696Z,0.00
2023-05-20T00:53:38.649Z,0.00
2023-05-20T00:54:38.646Z,0.00
2023-05-20T00:55:38.654Z,0.00
2023-05-20T00:56:38.642Z,0.00
2023-05-20T00:57:38.657Z,0.00
2023-05-20T00:58:38.635Z,0.00
2023-05-20T00:59:38.586Z,0.00
2023-05-20T01:00:38.593Z,0.00
2023-05-20T01:01:38.648Z,0.00
2023-05-20T01:02:38.696Z,0.00
2023-05-20T01:03:38.901Z,0.00
2023-05-20T01:04:38.576Z,0.00
2023-05-20T01:05:40.639Z,0.00
2023-05-20T01:06:38.509Z,0.00
2023-05-20T01:07:38.530Z,0.00
2023-05-20T01:08:38.514Z,0.00
2023-05-20T01:09:38.508Z,0.00
2023-05-20T01:10:38.495Z,0.00
2023-05-20T01:11:38.517Z,0.00
2023-05-20T01:12:38.460Z,0.00
2023-05-20T01:13:38.460Z,0.00
2023-05-20T01:14:38.451Z,0.00
2023-05-20T01:15:38.706Z,0.00
2023-05-20T01:16:38.496Z,0.00
2023-05-20T01:17:38.475Z,0.00
2023-05-20T01:18:38.539Z,0.00
2023-05-20T01:19:38.400Z,0.00
2023-05-20T01:20:38.407Z,0.00
2023-05-20T01:21:38.366Z,0.00
2023-05-20T01:22:38.417Z,0.00
2023-05-20T01:23:38.365Z,0.00
2023-05-20T01:24:38.339Z,0.00
2023-05-20T01:25:38.339Z,0.00
2023-05-20T01:26:38.532Z,0.00
2023-05-20T01:27:38.338Z,0.00
2023-05-20T01:28:38.307Z,0.00
2023-05-20T01:29:38.336Z,0.00
2023-05-20T01:30:38.327Z,0.00
2023-05-20T01:31:38.365Z,0.00
2023-05-20T01:32:38.372Z,0.00
2023-05-20T01:33:38.257Z,0.00
2023-05-20T01:34:38.223Z,0.00
2023-05-20T01:35:38.277Z,0.00
2023-05-20T01:36:38.245Z,0.00
2023-05-20T01:37:38.225Z,0.00
2023-05-20T01:38:38.253Z,0.00
2023-05-20T01:39:38.202Z,0.00
2023-05-20T01:40:38.233Z,0.00
2023-05-20T01:41:38.209Z,0.00
2023-05-20T01:42:38.213Z,0.00
2023-05-20T01:43:38.153Z,0.00
2023-05-20T01:44:38.146Z,0.00
2023-05-20T01:45:38.157Z,0.00
2023-05-20T01:46:38.174Z,0.00
2023-05-20T01:47:38.200Z,0.00
2023-05-20T01:48:38.158Z,0.00
2023-05-20T01:49:38.139Z,0.00
2023-05-20T01:50:38.094Z,0.00
2023-05-20T01:51:38.091Z,0.00
2023-05-20T01:52:38.065Z,0.00
2023-05-20T01:53:38.152Z,0.00
2023-05-20T01:54:38.080Z,0.00
2023-05-20T01:55:38.036Z,0.00
2023-05-20T01:56:38.093Z,0.00
2023-05-20T01:57:38.035Z,0.00
2023-05-20T01:58:38.024Z,0.00
2023-05-20T01:59:38.050Z,0.00
2023-05-20T02:00:38.051Z,0.00
2023-05-20T02:01:38.046Z,0.00
2023-05-20T02:02:38.096Z,0.00
2023-05-20T02:03:37.987Z,0.00
2023-05-20T02:04:37.954Z,0.00
2023-05-20T02:05:38.431Z,0.00
2023-05-20T02:06:37.982Z,0.00
2023-05-20T02:07:37.950Z,0.00
2023-05-20T02:08:37.916Z,0.00
2023-05-20T02:09:37.925Z,0.00
2023-05-20T02:10:37.890Z,0.00
2023-05-20T02:11:37.916Z,0.00
2023-05-20T02:12:37.925Z,0.00
2023-05-20T02:13:37.851Z,0.00
2023-05-20T02:14:37.847Z,0.00
2023-05-20T02:15:37.839Z,0.00
2023-05-20T02:16:37.969Z,0.00
2023-05-20T02:17:37.890Z,0.00
2023-05-20T02:18:37.812Z,0.00
2023-05-20T02:19:37.799Z,0.00
2023-05-20T02:20:37.795Z,0.00
2023-05-20T02:21:37.787Z,0.00
2023-05-20T02:22:37.813Z,0.00
2023-05-20T02:23:37.797Z,0.00
2023-05-20T02:24:37.810Z,0.00
2023-05-20T02:25:37.757Z,0.00
2023-05-20T02:26:37.736Z,0.00
2023-05-20T02:27:37.724Z,0.00
2023-05-20T02:28:37.731Z,0.00
2023-05-20T02:29:37.765Z,0.00
2023-05-20T02:30:37.708Z,0.00
2023-05-20T02:31:37.717Z,0.00
2023-05-20T02:32:37.736Z,0.00
2023-05-20T02:33:37.718Z,0.00
2023-05-20T02:34:37.698Z,0.00
2023-05-20T02:35:37.676Z,0.00
2023-05-20T02:36:37.655Z,0.00
2023-05-20T02:37:37.612Z,0.00
2023-05-20T02:38:37.636Z,0.00
2023-05-20T02:39:37.599Z,0.00
2023-05-20T02:40:37.641Z,0.00
2023-05-20T02:41:37.617Z,0.00
2023-05-20T02:42:37.592Z,0.00
2023-05-20T02:43:37.622Z,0.00
2023-05-20T02:44:37.576Z,0.00
2023-05-20T02:45:37.576Z,0.00
2023-05-20T02:46:37.682Z,0.00
2023-05-20T02:47:37.535Z,0.00
2023-05-20T02:48:37.546Z,0.00
2023-05-20T02:49:37.509Z,0.00
2023-05-20T02:50:37.519Z,0.00
2023-05-20T02:51:37.491Z,0.00
2023-05-20T02:52:37.471Z,0.00
2023-05-20T02:53:37.494Z,0.00
2023-05-20T02:54:37.480Z,0.00
2023-05-20T02:55:37.492Z,0.00
2023-05-20T02:56:37.475Z,0.00
2023-05-20T02:57:37.430Z,0.00
2023-05-20T02:58:37.357Z,1.00
2023-05-20T02:59:37.394Z,0.00
2023-05-20T03:00:37.392Z,0.00
2023-05-20T03:01:37.395Z,1.00
2023-05-20T03:02:37.343Z,1.00
2023-05-20T03:03:37.333Z,1.00
2023-05-20T03:04:37.463Z,0.00
2023-05-20T03:05:37.412Z,0.00
2023-05-20T03:06:37.291Z,2.00
2023-05-20T03:07:37.324Z,1.00
2023-05-20T03:08:37.338Z,1.00
2023-05-20T03:09:37.381Z,0.00
2023-05-20T03:10:37.286Z,2.00
2023-05-20T03:11:37.235Z,1.00
2023-05-20T03:12:37.236Z,1.00
2023-05-20T03:13:43.761Z,1.00
2023-05-20T03:14:37.224Z,2.00
2023-05-20T03:15:43.870Z,2.00
2023-05-20T03:16:43.758Z,2.00
2023-05-20T03:17:43.873Z,4.00
2023-05-20T03:18:46.180Z,6.00
2023-05-20T03:19:43.707Z,5.00
2023-05-20T03:20:43.679Z,5.00
2023-05-20T03:21:44.635Z,7.00
2023-05-20T03:22:43.736Z,5.00
2023-05-20T03:23:44.688Z,5.00
2023-05-20T03:24:45.166Z,6.00
2023-05-20T03:25:37.091Z,12.00
2023-05-20T03:26:43.759Z,10.00
2023-05-20T03:27:43.636Z,5.00
2023-05-20T03:28:43.628Z,7.00
2023-05-20T03:29:43.556Z,11.00
2023-05-20T03:30:37.086Z,15.00
2023-05-20T03:31:43.693Z,16.00
2023-05-20T03:32:44.724Z,15.00
2023-05-20T03:33:43.886Z,14.00
2023-05-20T03:34:37.065Z,12.00
2023-05-20T03:35:37.230Z,15.00
2023-05-20T03:36:43.579Z,20.00
2023-05-20T03:37:43.509Z,21.00
2023-05-20T03:38:43.520Z,22.00
2023-05-20T03:39:44.902Z,22.00
2023-05-20T03:40:45.851Z,21.00
2023-05-20T03:41:44.875Z,23.00
2023-05-20T03:42:43.509Z,22.00
2023-05-20T03:43:44.926Z,25.00
2023-05-20T03:44:36.918Z,28.00
2023-05-20T03:45:43.477Z,29.00
2023-05-20T03:46:36.932Z,31.00
2023-05-20T03:47:43.554Z,37.00
2023-05-20T03:48:43.396Z,34.00
2023-05-20T03:49:44.480Z,35.00
2023-05-20T03:50:43.432Z,39.00
2023-05-20T03:51:36.847Z,44.00
2023-05-20T03:52:36.821Z,42.00
2023-05-20T03:53:36.834Z,41.00
2023-05-20T03:54:36.818Z,42.00
2023-05-20T03:55:36.898Z,40.00
2023-05-20T03:56:36.790Z,42.00
2023-05-20T03:57:36.764Z,47.00
2023-05-20T03:58:36.776Z,48.00
2023-05-20T03:59:36.768Z,49.00
2023-05-20T04:00:36.751Z,54.00
2023-05-20T04:01:36.831Z,49.00
2023-05-20T04:02:36.874Z,54.00
2023-05-20T04:03:36.819Z,53.00
2023-05-20T04:04:36.748Z,55.00
2023-05-20T04:05:36.913Z,58.00
2023-05-20T04:06:36.688Z,56.00
2023-05-20T04:07:36.689Z,59.00
2023-05-20T04:08:36.729Z,61.00
2023-05-20T04:09:36.668Z,62.00
2023-05-20T04:10:36.670Z,63.00
2023-05-20T04:11:36.645Z,65.00
2023-05-20T04:12:36.635Z,65.00
2023-05-20T04:13:36.694Z,66.00
2023-05-20T04:14:36.624Z,66.00
2023-05-20T04:15:36.701Z,66.00
2023-05-20T04:16:36.693Z,74.00
2023-05-20T04:17:36.601Z,69.00
2023-05-20T04:18:36.601Z,71.00
2023-05-20T04:19:36.587Z,79.00
2023-05-20T04:20:36.538Z,77.00
2023-05-20T04:21:36.554Z,75.00
2023-05-20T04:22:36.538Z,64.00
2023-05-20T04:23:36.516Z,70.00
2023-05-20T04:24:36.526Z,74.00
2023-05-20T04:25:36.725Z,82.00
2023-05-20T04:26:36.488Z,84.00
2023-05-20T04:27:36.500Z,72.00
2023-05-20T04:28:36.504Z,64.00
2023-05-20T04:29:36.465Z,62.00
2023-05-20T04:30:36.446Z,70.00
2023-05-20T04:31:36.520Z,74.00
2023-05-20T04:32:36.466Z,77.00
2023-05-20T04:33:36.442Z,81.00
2023-05-20T04:34:36.431Z,77.00
2023-05-20T04:35:36.502Z,77.00
2023-05-20T04:36:36.399Z,81.00
2023-05-20T04:37:36.370Z,81.00
2023-05-20T04:38:36.369Z,70.00
2023-05-20T04:39:36.422Z,71.00
2023-05-20T04:40:36.348Z,74.00
2023-05-20T04:41:36.337Z,77.00
2023-05-20T04:42:36.346Z,82.00
2023-05-20T04:43:36.324Z,73.00
2023-05-20T04:44:36.312Z,73.00
2023-05-20T04:45:36.322Z,63.00
2023-05-20T04:46:36.456Z,78.00
2023-05-20T04:47:36.300Z,85.00
2023-05-20T04:48:36.274Z,95.00
2023-05-20T04:49:36.283Z,93.00
2023-05-20T04:50:36.237Z,77.00
2023-05-20T04:51:36.261Z,71.00
2023-05-20T04:52:36.223Z,76.00
2023-05-20T04:53:36.221Z,77.00
2023-05-20T04:54:36.204Z,71.00
2023-05-20T04:55:36.223Z,66.00
2023-05-20T04:56:36.227Z,63.00
2023-05-20T04:57:36.189Z,61.00
2023-05-20T04:58:36.389Z,54.00
2023-05-20T04:59:36.250Z,53.00
2023-05-20T05:00:36.202Z,49.00
2023-05-20T05:01:36.185Z,45.00
2023-05-20T05:02:36.300Z,42.00
2023-05-20T05:03:37.065Z,45.00
2023-05-20T05:04:36.293Z,51.00
2023-05-20T05:05:36.127Z,58.00
2023-05-20T05:06:36.144Z,52.00
2023-05-20T05:07:36.138Z,50.00
2023-05-20T05:08:36.110Z,47.00
2023-05-20T05:09:36.086Z,49.00
2023-05-20T05:10:36.935Z,51.00
2023-05-20T05:11:36.085Z,53.00
2023-05-20T05:12:36.040Z,54.00
2023-05-20T05:13:36.048Z,55.00
2023-05-20T05:14:36.003Z,58.00
2023-05-20T05:15:36.315Z,61.00
2023-05-20T05:16:36.036Z,66.00
2023-05-20T05:17:36.001Z,73.00
2023-05-20T05:18:35.958Z,79.00
2023-05-20T05:19:36.015Z,83.00
2023-05-20T05:20:35.924Z,88.00
2023-05-20T05:21:35.936Z,95.00
2023-05-20T05:22:35.902Z,111.00
2023-05-20T05:23:35.923Z,125.00
2023-05-20T05:24:35.922Z,129.00
2023-05-20T05:25:36.072Z,136.00
2023-05-20T05:26:35.891Z,143.00
2023-05-20T05:27:35.849Z,148.00
2023-05-20T05:28:35.852Z,150.00
2023-05-20T05:29:35.985Z,163.00
2023-05-20T05:30:35.855Z,150.00
2023-05-20T05:31:36.668Z,150.00
2023-05-20T05:32:35.919Z,163.00
2023-05-20T05:33:35.857Z,200.00
2023-05-20T05:34:35.845Z,212.00
2023-05-20T05:35:35.967Z,207.00
2023-05-20T05:36:35.758Z,186.00
2023-05-20T05:37:35.737Z,166.00
2023-05-20T05:38:35.737Z,162.00
2023-05-20T05:39:35.742Z,163.00
2023-05-20T05:40:35.716Z,170.00
2023-05-20T05:41:35.715Z,184.00
2023-05-20T05:42:35.714Z,189.00
2023-05-20T05:43:35.680Z,205.00
2023-05-20T05:44:35.667Z,208.00
2023-05-20T05:45:35.776Z,221.00
2023-05-20T05:46:35.762Z,223.00
2023-05-20T05:47:35.705Z,224.00
2023-05-20T05:48:35.646Z,225.00
2023-05-20T05:49:35.617Z,218.00
2023-05-20T05:50:35.609Z,213.00
2023-05-20T05:51:38.205Z,227.00
2023-05-20T05:52:35.621Z,233.00
2023-05-20T05:53:35.586Z,247.00
2023-05-20T05:54:35.564Z,292.00
2023-05-20T05:55:35.665Z,257.00
2023-05-20T05:56:35.571Z,270.00
2023-05-20T05:57:35.535Z,273.00
2023-05-20T05:58:35.556Z,275.00
2023-05-20T05:59:35.512Z,277.00
2023-05-20T06:00:35.510Z,281.00
2023-05-20T06:01:35.547Z,278.00
2023-05-20T06:02:35.667Z,276.00
2023-05-20T06:03:35.550Z,286.00
2023-05-20T06:04:35.475Z,284.00
2023-05-20T06:05:35.649Z,278.00
2023-05-20T06:06:35.432Z,272.00
2023-05-20T06:07:35.494Z,264.00
2023-05-20T06:08:35.448Z,255.00
2023-05-20T06:09:35.417Z,244.00
2023-05-20T06:10:35.416Z,231.00
2023-05-20T06:11:35.368Z,220.00
2023-05-20T06:12:35.438Z,210.00
2023-05-20T06:13:35.366Z,202.00
2023-05-20T06:14:35.415Z,195.00
2023-05-20T06:15:35.506Z,191.00
2023-05-20T06:16:35.608Z,187.00
2023-05-20T06:17:35.342Z,183.00
2023-05-20T06:18:35.332Z,178.00
2023-05-20T06:19:35.583Z,181.00
2023-05-20T06:20:35.301Z,179.00
2023-05-20T06:21:35.283Z,176.00
2023-05-20T06:22:35.263Z,168.00
2023-05-20T06:23:35.253Z,168.00
2023-05-20T06:24:35.253Z,167.00
2023-05-20T06:25:35.492Z,173.00
2023-05-20T06:26:35.227Z,177.00
2023-05-20T06:27:35.207Z,173.00
2023-05-20T06:28:35.221Z,171.00
2023-05-20T06:29:35.182Z,171.00
2023-05-20T06:30:35.185Z,169.00
2023-05-20T06:31:35.160Z,165.00
2023-05-20T06:32:35.200Z,163.00
2023-05-20T06:33:35.152Z,160.00
2023-05-20T06:34:35.117Z,159.00
2023-05-20T06:35:35.502Z,163.00
2023-05-20T06:36:35.098Z,163.00
2023-05-20T06:37:35.112Z,162.00
2023-05-20T06:38:35.075Z,163.00
2023-05-20T06:39:35.080Z,364.00
2023-05-20T06:40:35.079Z,135.00
2023-05-20T06:41:35.037Z,462.00
2023-05-20T06:42:35.075Z,132.00
2023-05-20T06:43:35.004Z,100.00
2023-05-20T06:44:35.018Z,114.00
2023-05-20T06:45:35.284Z,127.00
2023-05-20T06:46:35.040Z,143.00
2023-05-20T06:47:35.050Z,165.00
2023-05-20T06:48:35.125Z,186.00
2023-05-20T06:49:34.950Z,210.00
2023-05-20T06:50:34.936Z,220.00
2023-05-20T06:51:34.967Z,250.00
2023-05-20T06:52:34.980Z,271.00
2023-05-20T06:53:34.996Z,273.00
2023-05-20T06:54:34.969Z,280.00
2023-05-20T06:55:35.118Z,276.00
2023-05-20T06:56:34.895Z,287.00
2023-05-20T06:57:34.912Z,279.00
2023-05-20T06:58:34.852Z,288.00
2023-05-20T06:59:34.854Z,295.00
2023-05-20T07:00:34.817Z,305.00
2023-05-20T07:01:34.835Z,332.00
2023-05-20T07:02:34.992Z,300.00
2023-05-20T07:03:34.818Z,301.00
2023-05-20T07:04:34.793Z,320.00
2023-05-20T07:05:34.976Z,332.00
2023-05-20T07:06:34.783Z,339.00
2023-05-20T07:07:34.778Z,382.00
2023-05-20T07:08:34.765Z,430.00
2023-05-20T07:09:34.736Z,363.00
2023-05-20T07:10:34.973Z,361.00
2023-05-20T07:11:34.735Z,355.00
2023-05-20T07:12:36.630Z,369.00
2023-05-20T07:13:34.713Z,488.00
2023-05-20T07:14:34.697Z,316.00
2023-05-20T07:15:34.878Z,330.00
2023-05-20T07:16:34.802Z,322.00
2023-05-20T07:17:34.761Z,321.00
2023-05-20T07:18:34.866Z,320.00
2023-05-20T07:19:34.664Z,344.00
2023-05-20T07:20:34.626Z,292.00
2023-05-20T07:21:34.635Z,345.00
2023-05-20T07:22:34.589Z,529.00
2023-05-20T07:23:34.607Z,306.00
2023-05-20T07:24:34.595Z,330.00
2023-05-20T07:25:34.818Z,300.00
2023-05-20T07:26:34.575Z,291.00
2023-05-20T07:27:34.544Z,290.00
2023-05-20T07:28:34.528Z,295.00
2023-05-20T07:29:34.532Z,293.00
2023-05-20T07:30:34.525Z,297.00
2023-05-20T07:31:34.537Z,314.00
2023-05-20T07:32:34.506Z,339.00
2023-05-20T07:33:34.511Z,383.00
2023-05-20T07:34:34.493Z,350.00
2023-05-20T07:35:34.711Z,279.00
2023-05-20T07:36:34.463Z,368.00
2023-05-20T07:37:34.512Z,251.00
2023-05-20T07:38:34.499Z,269.00
2023-05-20T07:39:34.406Z,280.00
2023-05-20T07:40:34.713Z,284.00
2023-05-20T07:41:34.435Z,304.00
2023-05-20T07:42:34.412Z,341.00
2023-05-20T07:43:34.395Z,368.00
2023-05-20T07:44:34.401Z,392.00
2023-05-20T07:45:34.489Z,376.00
2023-05-20T07:46:34.422Z,363.00
2023-05-20T07:47:34.496Z,386.00
2023-05-20T07:48:34.324Z,395.00
2023-05-20T07:49:34.307Z,419.00
2023-05-20T07:50:34.340Z,427.00
2023-05-20T07:51:34.454Z,448.00
2023-05-20T07:52:44.193Z,477.00
2023-05-20T07:53:34.280Z,441.00
2023-05-20T07:54:34.256Z,469.00
2023-05-20T07:55:34.407Z,462.00
2023-05-20T07:56:34.249Z,465.00
2023-05-20T07:57:34.228Z,483.00
2023-05-20T07:58:42.742Z,417.00
2023-05-20T07:59:41.766Z,371.00
2023-05-20T08:00:41.868Z,356.00
2023-05-20T08:01:40.756Z,355.00
2023-05-20T08:02:34.236Z,356.00
2023-05-20T08:03:34.221Z,330.00
2023-05-20T08:04:42.233Z,310.00
2023-05-20T08:05:34.427Z,330.00
2023-05-20T08:06:41.633Z,290.00
2023-05-20T08:07:40.637Z,283.00
2023-05-20T08:08:34.933Z,302.00
2023-05-20T08:09:34.321Z,323.00
2023-05-20T08:10:34.139Z,293.00
2023-05-20T08:11:34.091Z,283.00
2023-05-20T08:12:34.055Z,280.00
2023-05-20T08:13:34.039Z,284.00
2023-05-20T08:14:34.038Z,293.00
2023-05-20T08:15:34.193Z,363.00
2023-05-20T08:16:34.070Z,293.00
2023-05-20T08:17:34.249Z,306.00
2023-05-20T08:18:34.029Z,368.00
2023-05-20T08:19:34.095Z,280.00
2023-05-20T08:20:34.011Z,271.00
2023-05-20T08:21:34.184Z,296.00
2023-05-20T08:22:33.954Z,318.00
2023-05-20T08:23:36.797Z,316.00
2023-05-20T08:24:33.915Z,315.00
2023-05-20T08:25:34.193Z,300.00
2023-05-20T08:26:33.905Z,298.00
2023-05-20T08:27:33.920Z,299.00
2023-05-20T08:28:33.885Z,342.00
2023-05-20T08:29:33.874Z,300.00
2023-05-20T08:30:33.845Z,307.00
2023-05-20T08:31:33.884Z,312.00
2023-05-20T08:32:34.076Z,337.00
2023-05-20T08:33:33.880Z,363.00
2023-05-20T08:34:33.946Z,531.00
2023-05-20T08:35:34.076Z,422.00
2023-05-20T08:36:33.806Z,452.00
2023-05-20T08:37:33.788Z,405.00
2023-05-20T08:38:33.822Z,462.00
2023-05-20T08:39:33.785Z,808.00
2023-05-20T08:40:33.761Z,442.00
2023-05-20T08:41:33.768Z,480.00
2023-05-20T08:42:33.725Z,464.00
2023-05-20T08:43:33.717Z,491.00
2023-05-20T08:44:33.729Z,505.00
2023-05-20T08:45:33.935Z,516.00
2023-05-20T08:46:33.723Z,545.00
2023-05-20T08:47:33.710Z,563.00
2023-05-20T08:48:33.666Z,546.00
2023-05-20T08:49:40.693Z,537.00
2023-05-20T08:50:35.192Z,609.00
2023-05-20T08:51:34.165Z,505.00
2023-05-20T08:52:33.630Z,451.00
2023-05-20T08:53:33.631Z,502.00
2023-05-20T08:54:34.291Z,466.00
2023-05-20T08:55:34.829Z,417.00
2023-05-20T08:56:33.572Z,419.00
2023-05-20T08:57:33.601Z,571.00
2023-05-20T08:58:33.750Z,366.00
2023-05-20T08:59:33.550Z,360.00
2023-05-20T09:00:33.549Z,449.00
2023-05-20T09:01:33.619Z,383.00
2023-05-20T09:02:33.579Z,392.00
2023-05-20T09:03:33.510Z,409.00
2023-05-20T09:04:33.538Z,406.00
2023-05-20T09:05:33.687Z,468.00
2023-05-20T09:06:33.510Z,511.00
2023-05-20T09:07:33.473Z,829.00
2023-05-20T09:08:33.448Z,436.00
2023-05-20T09:09:33.466Z,402.00
2023-05-20T09:10:33.465Z,688.00
2023-05-20T09:11:33.632Z,411.00
2023-05-20T09:12:33.560Z,441.00
2023-05-20T09:13:33.523Z,623.00
2023-05-20T09:14:33.443Z,433.00
2023-05-20T09:15:33.729Z,427.00
2023-05-20T09:16:33.481Z,433.00
2023-05-20T09:17:33.389Z,471.00
2023-05-20T09:18:33.380Z,525.00
2023-05-20T09:19:33.391Z,541.00
2023-05-20T09:20:33.318Z,468.00
2023-05-20T09:21:33.350Z,448.00
2023-05-20T09:22:33.334Z,479.00
2023-05-20T09:23:33.278Z,527.00
2023-05-20T09:24:33.282Z,549.00
2023-05-20T09:25:33.412Z,541.00
2023-05-20T09:26:33.293Z,519.00
2023-05-20T09:27:33.249Z,507.00
2023-05-20T09:28:33.232Z,545.00
2023-05-20T09:29:33.210Z,616.00
2023-05-20T09:30:33.220Z,537.00
2023-05-20T09:31:33.214Z,868.00
2023-05-20T09:32:33.315Z,538.00
2023-05-20T09:33:33.237Z,566.00
2023-05-20T09:34:33.194Z,845.00
2023-05-20T09:35:33.428Z,655.00
2023-05-20T09:36:33.164Z,419.00
2023-05-20T09:37:33.183Z,473.00
2023-05-20T09:38:33.129Z,517.00
2023-05-20T09:39:33.169Z,645.00
2023-05-20T09:40:33.120Z,647.00
2023-05-20T09:41:33.117Z,817.00
2023-05-20T09:42:33.110Z,565.00
2023-05-20T09:43:33.064Z,616.00
2023-05-20T09:44:33.062Z,525.00
2023-05-20T09:45:33.266Z,513.00
2023-05-20T09:46:33.165Z,511.00
2023-05-20T09:47:33.062Z,540.00
2023-05-20T09:48:34.204Z,491.00
2023-05-20T09:49:33.062Z,581.00
2023-05-20T09:50:33.009Z,500.00
2023-05-20T09:51:33.005Z,497.00
2023-05-20T09:52:32.982Z,479.00
2023-05-20T09:53:33.028Z,518.00
2023-05-20T09:54:32.942Z,465.00
2023-05-20T09:55:33.113Z,461.00
2023-05-20T09:56:32.936Z,447.00
2023-05-20T09:57:32.950Z,435.00
2023-05-20T09:58:33.280Z,412.00
2023-05-20T09:59:32.923Z,411.00
2023-05-20T10:00:32.906Z,433.00
2023-05-20T10:01:33.169Z,495.00
2023-05-20T10:02:32.932Z,552.00
2023-05-20T10:03:32.909Z,453.00
2023-05-20T10:04:32.977Z,467.00
2023-05-20T10:05:33.201Z,501.00
2023-05-20T10:06:32.888Z,611.00
2023-05-20T10:07:41.832Z,690.00
2023-05-20T10:08:32.849Z,729.00
2023-05-20T10:09:32.888Z,715.00
2023-05-20T10:10:32.791Z,624.00
2023-05-20T10:11:32.826Z,572.00
2023-05-20T10:12:34.498Z,1733.00
2023-05-20T10:13:34.100Z,313.00
2023-05-20T10:14:42.203Z,411.00
2023-05-20T10:15:55.917Z,521.00
2023-05-20T10:16:34.359Z,572.00
2023-05-20T10:17:33.742Z,657.00
2023-05-20T10:18:32.714Z,766.00
2023-05-20T10:19:32.794Z,838.00
2023-05-20T10:20:32.707Z,862.00
2023-05-20T10:21:32.707Z,1860.00
2023-05-20T10:22:32.655Z,1166.00
2023-05-20T10:23:32.670Z,641.00
2023-05-20T10:24:32.650Z,744.00
2023-05-20T10:25:32.767Z,1672.00
2023-05-20T10:26:32.629Z,464.00
2023-05-20T10:27:32.644Z,550.00
2023-05-20T10:28:32.613Z,567.00
2023-05-20T10:29:32.580Z,990.00
2023-05-20T10:30:32.661Z,546.00
2023-05-20T10:31:32.570Z,793.00
2023-05-20T10:32:32.630Z,530.00
2023-05-20T10:33:32.645Z,972.00
2023-05-20T10:34:32.548Z,491.00
2023-05-20T10:35:32.527Z,663.00
2023-05-20T10:36:32.540Z,470.00
2023-05-20T10:37:32.508Z,490.00
2023-05-20T10:38:32.516Z,558.00
2023-05-20T10:39:32.460Z,1007.00
2023-05-20T10:40:32.756Z,695.00
2023-05-20T10:41:32.447Z,588.00
2023-05-20T10:42:32.464Z,798.00
2023-05-20T10:43:33.286Z,633.00
2023-05-20T10:44:32.463Z,855.00
2023-05-20T10:45:32.428Z,598.00
2023-05-20T10:46:41.878Z,835.00
2023-05-20T10:47:32.531Z,655.00
2023-05-20T10:48:32.560Z,1017.00
2023-05-20T10:49:32.414Z,772.00
2023-05-20T10:50:32.579Z,678.00
2023-05-20T10:51:32.363Z,852.00
2023-05-20T10:52:32.350Z,827.00
2023-05-20T10:53:34.452Z,869.00
2023-05-20T10:54:32.302Z,543.00
2023-05-20T10:55:32.320Z,517.00
2023-05-20T10:56:32.304Z,543.00
2023-05-20T10:57:32.316Z,611.00
2023-05-20T10:58:32.286Z,605.00
2023-05-20T10:59:32.242Z,965.00
2023-05-20T11:00:32.296Z,615.00
2023-05-20T11:01:32.299Z,573.00
2023-05-20T11:02:32.236Z,940.00
2023-05-20T11:03:32.273Z,1137.00
2023-05-20T11:04:32.216Z,961.00
2023-05-20T11:05:32.295Z,792.00
2023-05-20T11:06:32.199Z,663.00
2023-05-20T11:07:32.172Z,504.00
2023-05-20T11:08:32.196Z,765.00
2023-05-20T11:09:32.193Z,726.00
2023-05-20T11:10:32.222Z,693.00
2023-05-20T11:11:32.140Z,439.00
2023-05-20T11:12:32.136Z,686.00
2023-05-20T11:13:32.114Z,580.00
2023-05-20T11:14:32.144Z,1328.00
2023-05-20T11:15:32.180Z,798.00
2023-05-20T11:16:32.153Z,614.00
2023-05-20T11:17:32.103Z,597.00
2023-05-20T11:18:32.063Z,421.00
2023-05-20T11:19:32.201Z,331.00
2023-05-20T11:20:32.138Z,436.00
2023-05-20T11:21:32.062Z,620.00
2023-05-20T11:22:32.060Z,916.00
2023-05-20T11:23:32.033Z,292.00
2023-05-20T11:24:31.997Z,351.00
2023-05-20T11:25:32.013Z,513.00
2023-05-20T11:26:31.980Z,562.00
2023-05-20T11:27:31.963Z,871.00
2023-05-20T11:28:31.974Z,676.00
2023-05-20T11:29:31.976Z,365.00
2023-05-20T11:30:31.954Z,404.00
2023-05-20T11:31:31.995Z,589.00
2023-05-20T11:32:31.963Z,581.00
2023-05-20T11:33:31.888Z,778.00
2023-05-20T11:34:31.975Z,802.00
2023-05-20T11:35:31.870Z,657.00
2023-05-20T11:36:31.890Z,562.00
2023-05-20T11:37:31.846Z,477.00
2023-05-20T11:38:31.857Z,517.00
2023-05-20T11:39:31.830Z,587.00
2023-05-20T11:40:38.848Z,324.00
2023-05-20T11:41:31.812Z,180.00
2023-05-20T11:42:31.832Z,202.00
2023-05-20T11:43:31.806Z,239.00
2023-05-20T11:44:31.771Z,286.00
2023-05-20T11:45:31.755Z,292.00
2023-05-20T11:46:31.783Z,312.00
2023-05-20T11:47:39.926Z,432.00
2023-05-20T11:48:31.752Z,505.00
2023-05-20T11:49:31.768Z,753.00
2023-05-20T11:50:31.794Z,660.00
2023-05-20T11:51:31.814Z,707.00
2023-05-20T11:52:31.763Z,505.00
2023-05-20T11:53:31.708Z,378.00
2023-05-20T11:54:31.677Z,357.00
2023-05-20T11:55:31.648Z,360.00
2023-05-20T11:56:31.724Z,457.00
2023-05-20T11:57:31.657Z,383.00
2023-05-20T11:58:31.659Z,634.00
2023-05-20T11:59:31.648Z,441.00
2023-05-20T12:00:50.171Z,269.00
2023-05-20T12:01:31.592Z,247.00
2023-05-20T12:02:38.434Z,237.00
2023-05-20T12:03:31.711Z,250.00
2023-05-20T12:04:31.734Z,298.00
2023-05-20T12:05:31.594Z,505.00
2023-05-20T12:06:31.549Z,426.00
2023-05-20T12:07:31.528Z,435.00
2023-05-20T12:08:31.514Z,644.00
2023-05-20T12:09:31.508Z,1261.00
2023-05-20T12:10:31.503Z,519.00
2023-05-20T12:11:31.497Z,696.00
2023-05-20T12:12:31.488Z,970.00
2023-05-20T12:13:33.125Z,1996.00
2023-05-20T12:14:31.474Z,632.00
2023-05-20T12:15:31.460Z,874.00
2023-05-20T12:16:31.648Z,1236.00
2023-05-20T12:17:31.458Z,1051.00
2023-05-20T12:18:31.431Z,876.00
2023-05-20T12:19:32.668Z,872.00
2023-05-20T12:20:32.327Z,1376.00
2023-05-20T12:21:31.381Z,1478.00
2023-05-20T12:22:31.353Z,1236.00
2023-05-20T12:23:31.369Z,655.00
2023-05-20T12:24:31.359Z,1157.00
2023-05-20T12:25:31.350Z,940.00
2023-05-20T12:26:31.316Z,1410.00
2023-05-20T12:27:31.312Z,1502.00
2023-05-20T12:28:31.345Z,1765.00
2023-05-20T12:29:31.296Z,1531.00
2023-05-20T12:30:31.302Z,1035.00
2023-05-20T12:31:34.466Z,885.00
2023-05-20T12:32:31.322Z,1003.00
2023-05-20T12:33:31.372Z,2586.00
2023-05-20T12:38:36.018Z,1813.00
2023-05-20T12:39:36.975Z,1580.00
2023-05-20T12:40:37.373Z,2006.00
2023-05-20T12:41:36.958Z,2154.00
2023-05-20T12:42:36.925Z,1676.00
2023-05-20T12:43:37.478Z,1543.00
2023-05-20T12:44:36.914Z,1869.00
2023-05-20T12:45:36.905Z,1968.00
2023-05-20T12:46:36.930Z,1552.00
2023-05-20T12:47:36.906Z,1657.00